Time;durP1;ratioP1;P1;durP2;ratioP2;P2;SDS_P1;SDS_P2;PMS_P1;PMS_P2;Temp;Humidity;BMP_temperature;BMP_pressure;BME280_temperature;BME280_humidity;BME280_pressure;Samples;Min_cycle;Max_cycle;Signal;HPM_P1;HPM_P2
2022/12/09 00:01:29;;;;;;;44.90;18.20;;;;;;;2.90;100.00;100886.76;105612;1265;59101;-75
2022/12/09 00:03:58;;;;;;;43.70;18.40;;;;;;;2.96;100.00;100879.64;105520;1266;72108;-74
2022/12/09 00:06:29;;;;;;;40.70;16.50;;;;;;;2.96;100.00;100878.79;105429;1266;61577;-75
2022/12/09 00:08:58;;;;;;;44.10;18.80;;;;;;;3.00;100.00;100880.85;105527;1261;59093;-73
2022/12/09 00:11:27;;;;;;;39.80;17.50;;;;;;;2.94;100.00;100884.53;105426;1274;73818;-73
2022/12/09 00:13:58;;;;;;;50.50;18.20;;;;;;;2.98;100.00;100881.32;105505;1267;59040;-73
2022/12/09 00:16:27;;;;;;;41.10;17.10;;;;;;;2.98;100.00;100878.73;105556;1267;59156;-74
2022/12/09 00:18:57;;;;;;;44.60;18.70;;;;;;;2.96;100.00;100878.11;105582;1265;72700;-74
2022/12/09 00:21:31;;;;;;;41.40;18.30;;;;;;;3.00;100.00;100877.08;105631;1274;61868;-77
2022/12/09 00:24:05;;;;;;;47.90;19.30;;;;;;;3.01;100.00;100874.81;105514;1269;70186;-74
2022/12/09 00:26:34;;;;;;;47.50;18.70;;;;;;;3.06;100.00;100870.50;105458;1267;73950;-74
2022/12/09 00:29:03;;;;;;;45.10;17.10;;;;;;;3.10;100.00;100868.78;105434;1266;58967;-75
2022/12/09 00:31:35;;;;;;;47.90;18.30;;;;;;;3.11;100.00;100865.31;105476;1267;59098;-76
2022/12/09 00:34:10;;;;;;;42.10;17.40;;;;;;;3.03;100.00;100860.62;105269;1266;72809;-77
2022/12/09 00:36:39;;;;;;;47.50;18.90;;;;;;;3.00;100.00;100855.44;105511;1266;60853;-76
2022/12/09 00:39:11;;;;;;;47.40;18.50;;;;;;;3.03;100.00;100851.85;105511;1275;58969;-77
2022/12/09 00:41:40;;;;;;;52.60;20.90;;;;;;;2.97;100.00;100853.27;105518;1266;74902;-76
2022/12/09 00:44:10;;;;;;;55.70;20.90;;;;;;;2.91;100.00;100848.33;105519;1275;61923;-76
2022/12/09 00:46:39;;;;;;;44.20;18.20;;;;;;;2.97;100.00;100846.25;105497;1267;59059;-74
2022/12/09 00:49:09;;;;;;;49.20;19.60;;;;;;;3.04;100.00;100840.30;105540;1272;72718;-78
2022/12/09 00:51:38;;;;;;;44.70;17.90;;;;;;;3.06;100.00;100836.74;105627;1274;62382;-80
2022/12/09 00:54:07;;;;;;;47.60;18.10;;;;;;;3.09;100.00;100828.88;105419;1272;69388;-78
2022/12/09 00:56:36;;;;;;;41.40;16.90;;;;;;;3.10;100.00;100825.39;105492;1265;62933;-79
2022/12/09 00:59:05;;;;;;;42.40;16.40;;;;;;;3.14;100.00;100818.88;105531;1274;61654;-78
2022/12/09 01:01:33;;;;;;;45.90;17.10;;;;;;;3.14;100.00;100814.05;105516;1270;60527;-78
2022/12/09 01:04:07;;;;;;;37.60;16.60;;;;;;;3.16;100.00;100815.17;105581;1263;72533;-78
2022/12/09 01:06:36;;;;;;;39.20;17.80;;;;;;;3.18;100.00;100811.66;105607;1269;61433;-77
2022/12/09 01:09:05;;;;;;;43.00;17.00;;;;;;;3.15;100.00;100807.33;105584;1266;59190;-75
2022/12/09 01:11:34;;;;;;;39.40;17.80;;;;;;;3.11;100.00;100804.38;105563;1265;73019;-76
2022/12/09 01:14:03;;;;;;;41.00;16.60;;;;;;;3.15;100.00;100797.33;105533;1266;61882;-75
2022/12/09 01:16:33;;;;;;;39.40;17.10;;;;;;;3.15;100.00;100797.85;105514;1270;61036;-74
2022/12/09 01:19:07;;;;;;;40.90;16.50;;;;;;;3.12;100.00;100797.13;105469;1273;64173;-74
2022/12/09 01:21:37;;;;;;;38.60;17.00;;;;;;;3.17;100.00;100796.05;105541;1266;72123;-74
2022/12/09 01:24:10;;;;;;;38.30;17.20;;;;;;;3.18;100.00;100796.17;105543;1275;59503;-75
2022/12/09 01:26:39;;;;;;;40.80;17.40;;;;;;;3.21;100.00;100792.11;105558;1269;63184;-74
2022/12/09 01:29:08;;;;;;;37.60;16.10;;;;;;;3.19;100.00;100790.80;105503;1269;58726;-74
2022/12/09 01:31:37;;;;;;;38.80;17.60;;;;;;;3.19;100.00;100786.69;105588;1275;60923;-75
2022/12/09 01:34:06;;;;;;;37.50;16.10;;;;;;;3.17;100.00;100791.55;105442;1275;62637;-76
2022/12/09 01:36:35;;;;;;;36.80;15.70;;;;;;;3.21;100.00;100788.81;105603;1269;61743;-75
2022/12/09 01:39:04;;;;;;;38.00;15.80;;;;;;;3.30;100.00;100779.33;105527;1273;60425;-74
2022/12/09 01:41:34;;;;;;;36.10;16.60;;;;;;;3.34;100.00;100770.59;105568;1274;73866;-77
2022/12/09 01:44:18;;;;;;;30.30;14.90;;;;;;;3.33;100.00;100763.90;105671;1267;59011;-76
2022/12/09 01:46:48;;;;;;;28.60;14.00;;;;;;;3.35;100.00;100764.68;105547;1266;61254;-74
2022/12/09 01:49:26;;;;;;;31.00;14.50;;;;;;;3.29;100.00;100762.52;105268;1268;73900;-73
2022/12/09 01:52:04;;;;;;;33.40;14.50;;;;;;;3.30;100.00;100762.32;105502;1260;61959;-73
2022/12/09 01:54:34;;;;;;;27.90;14.70;;;;;;;3.39;100.00;100768.31;105562;1269;69463;-73
2022/12/09 01:57:04;;;;;;;31.90;14.90;;;;;;;3.40;100.00;100767.90;105488;1259;63681;-73
2022/12/09 01:59:36;;;;;;;28.10;13.90;;;;;;;3.39;100.00;100765.02;105508;1266;60274;-73
2022/12/09 02:02:09;;;;;;;30.60;14.30;;;;;;;3.39;100.00;100757.96;105369;1273;60719;-74
2022/12/09 02:04:41;;;;;;;32.00;15.60;;;;;;;3.44;100.00;100757.75;105386;1267;64443;-73
2022/12/09 02:07:10;;;;;;;30.60;14.30;;;;;;;3.49;100.00;100762.87;105484;1275;61448;-72
2022/12/09 02:09:42;;;;;;;28.30;13.00;;;;;;;3.50;100.00;100774.91;105495;1270;69697;-72
2022/12/09 02:12:12;;;;;;;26.70;12.60;;;;;;;3.49;100.00;100774.09;105344;1275;70974;-72
2022/12/09 02:15:28;;;;;;;30.30;13.30;;;;;;;3.43;100.00;100766.77;105438;1266;61082;-72
2022/12/09 02:18:02;;;;;;;26.20;12.20;;;;;;;3.46;100.00;100766.98;104839;1276;57693;-73
2022/12/09 02:20:59;;;;;;;28.50;12.50;;;;;;;3.49;100.00;100770.13;104800;1271;63299;-73
2022/12/09 02:23:40;;;;;;;26.10;12.60;;;;;;;3.50;100.00;100765.45;105262;1269;71901;-73
2022/12/09 02:26:36;;;;;;;27.00;13.00;;;;;;;3.58;100.00;100754.25;105418;1270;70679;-75
2022/12/09 02:29:37;;;;;;;23.70;13.10;;;;;;;3.52;100.00;100754.52;105531;1270;73727;-73
2022/12/09 02:32:22;;;;;;;27.10;12.30;;;;;;;3.61;100.00;100758.06;105490;1266;61760;-73
2022/12/09 02:35:02;;;;;;;24.50;12.10;;;;;;;3.61;100.00;100754.78;105437;1269;60428;-76
2022/12/09 02:37:42;;;;;;;28.20;13.40;;;;;;;3.54;100.00;100748.93;105405;1259;74624;-77
2022/12/09 02:40:23;;;;;;;29.50;13.60;;;;;;;3.53;100.00;100742.23;105643;1260;70171;-75
2022/12/09 02:42:54;;;;;;;24.10;12.30;;;;;;;3.50;100.00;100738.08;105549;1268;59142;-72
2022/12/09 02:45:28;;;;;;;28.80;12.80;;;;;;;3.51;100.00;100729.55;105547;1264;73047;-78
2022/12/09 02:48:00;;;;;;;27.50;14.20;;;;;;;3.49;100.00;100726.04;105602;1275;62104;-74
2022/12/09 02:50:33;;;;;;;;;;;;;;;3.51;100.00;100728.56;105543;1262;61568;-76
2022/12/09 02:53:10;;;;;;;25.40;12.50;;;;;;;3.49;100.00;100728.10;105498;1262;63385;-72
2022/12/09 02:55:42;;;;;;;28.40;13.60;;;;;;;3.54;100.00;100730.66;105411;1275;73132;-77
2022/12/09 02:58:11;;;;;;;26.10;13.80;;;;;;;3.56;100.00;100732.13;105587;1275;59381;-78
2022/12/09 03:00:41;;;;;;;25.60;11.60;;;;;;;3.63;100.00;100735.45;105514;1269;62400;-75
2022/12/09 03:03:16;;;;;;;26.40;13.00;;;;;;;3.68;100.00;100736.40;105570;1260;62353;-74
2022/12/09 03:06:12;;;;;;;25.00;13.30;;;;;;;3.71;100.00;100740.23;105577;1260;59091;-79
2022/12/09 03:09:01;;;;;;;29.60;15.00;;;;;;;3.66;100.00;100738.91;105569;1269;73495;-75
2022/12/09 03:11:32;;;;;;;29.70;14.60;;;;;;;3.63;100.00;100735.58;105486;1267;72607;-75
2022/12/09 03:14:02;;;;;;;32.50;15.00;;;;;;;3.61;100.00;100731.34;105536;1274;68954;-74
2022/12/09 03:17:04;;;;;;;28.40;14.60;;;;;;;3.65;100.00;100729.13;105444;1269;74130;-73
2022/12/09 03:19:45;;;;;;;29.20;14.00;;;;;;;3.69;100.00;100728.61;105541;1263;62269;-73
2022/12/09 03:22:22;;;;;;;31.50;13.30;;;;;;;3.67;100.00;100725.77;105567;1267;59170;-75
2022/12/09 03:25:09;;;;;;;29.50;14.80;;;;;;;3.68;100.00;100717.82;105535;1274;73309;-74
2022/12/09 03:27:56;;;;;;;37.00;16.60;;;;;;;3.62;100.00;100717.04;105496;1266;61061;-75
2022/12/09 03:30:25;;;;;;;35.50;16.40;;;;;;;3.65;100.00;100724.48;105589;1262;59014;-76
2022/12/09 03:32:55;;;;;;;43.40;16.50;;;;;;;3.65;100.00;100726.19;105568;1266;73815;-74
2022/12/09 03:35:33;;;;;;;42.70;16.40;;;;;;;3.60;100.00;100729.20;105564;1266;59094;-75
2022/12/09 03:38:06;;;;;;;31.30;12.50;;;;;;;3.49;100.00;100730.69;105683;1269;60967;-75
2022/12/09 03:40:37;;;;;;;36.20;15.20;;;;;;;3.32;100.00;100727.25;105773;1265;63233;-77
2022/12/09 03:43:18;;;;;;;41.70;15.50;;;;;;;3.18;100.00;100718.73;105568;1272;72147;-75
2022/12/09 03:45:48;;;;;;;40.40;15.00;;;;;;;3.06;100.00;100715.44;105451;1273;60326;-74
2022/12/09 03:48:17;;;;;;;38.90;15.40;;;;;;;3.00;100.00;100718.77;105632;1274;72737;-74
2022/12/09 03:51:04;;;;;;;41.30;16.30;;;;;;;2.94;100.00;100713.52;105527;1262;58833;-75
2022/12/09 03:53:41;;;;;;;42.10;17.50;;;;;;;2.93;100.00;100708.59;105559;1270;60377;-76
2022/12/09 03:56:25;;;;;;;48.40;16.30;;;;;;;2.88;100.00;100706.38;105504;1266;73262;-73
2022/12/09 03:58:58;;;;;;;43.20;17.20;;;;;;;2.94;100.00;100700.80;105578;1256;71642;-74
2022/12/09 04:01:30;;;;;;;46.90;18.00;;;;;;;2.89;100.00;100703.39;105631;1274;68471;-75
2022/12/09 04:03:59;;;;;;;40.00;15.60;;;;;;;2.96;100.00;100706.58;105660;1275;63137;-75
2022/12/09 04:06:28;;;;;;;41.70;16.60;;;;;;;2.98;100.00;100709.77;105638;1266;58866;-75
2022/12/09 04:08:57;;;;;;;39.70;14.90;;;;;;;2.92;100.00;100708.98;105652;1266;58835;-75
2022/12/09 04:11:31;;;;;;;;;;;;;;;2.83;100.00;100702.45;105650;1266;63205;-74
2022/12/09 04:14:00;;;;;;;41.60;14.60;;;;;;;2.72;100.00;100702.39;105692;1266;60703;-74
2022/12/09 04:16:29;;;;;;;44.00;16.60;;;;;;;2.66;100.00;100693.52;105641;1267;59887;-75
2022/12/09 04:18:58;;;;;;;48.60;17.60;;;;;;;2.61;100.00;100690.59;105524;1269;63525;-74
2022/12/09 04:21:27;;;;;;;48.90;17.30;;;;;;;2.61;100.00;100687.52;105533;1270;59098;-74
2022/12/09 04:23:56;;;;;;;48.70;17.50;;;;;;;2.64;100.00;100688.59;105681;1264;59140;-74
2022/12/09 04:26:26;;;;;;;50.90;17.80;;;;;;;2.65;100.00;100687.33;105580;1264;71969;-74
2022/12/09 04:28:55;;;;;;;48.30;17.40;;;;;;;2.67;100.00;100688.98;105625;1266;62095;-74
2022/12/09 04:31:25;;;;;;;49.70;18.00;;;;;;;2.74;100.00;100682.34;105662;1273;68827;-74
2022/12/09 04:33:54;;;;;;;44.50;15.60;;;;;;;2.84;100.00;100684.88;105519;1269;73643;-74
2022/12/09 04:36:23;;;;;;;49.60;17.50;;;;;;;2.82;100.00;100693.54;105541;1266;63492;-75
2022/12/09 04:38:51;;;;;;;49.80;18.60;;;;;;;2.72;100.00;100688.27;105548;1267;61000;-75
2022/12/09 04:41:20;;;;;;;54.90;19.90;;;;;;;2.70;100.00;100697.30;105495;1265;73976;-75
2022/12/09 04:43:49;;;;;;;46.50;16.70;;;;;;;2.73;100.00;100707.48;105456;1274;61991;-77
2022/12/09 04:46:18;;;;;;;36.50;14.70;;;;;;;2.82;100.00;100709.02;105533;1266;59798;-76
2022/12/09 04:48:47;;;;;;;45.70;17.70;;;;;;;2.78;100.00;100698.89;105557;1261;63170;-76
2022/12/09 04:51:16;;;;;;;54.60;18.70;;;;;;;2.66;100.00;100705.87;105480;1270;61813;-78
2022/12/09 04:53:45;;;;;;;51.70;17.10;;;;;;;2.71;100.00;100710.50;105555;1266;60960;-73
2022/12/09 04:56:20;;;;;;;42.20;15.00;;;;;;;2.76;100.00;100707.20;105684;1261;72918;-74
2022/12/09 04:58:50;;;;;;;42.90;16.20;;;;;;;2.75;100.00;100709.84;105459;1266;71613;-76
2022/12/09 05:01:23;;;;;;;41.40;14.60;;;;;;;2.74;100.00;100713.98;105565;1265;59291;-74
2022/12/09 05:03:58;;;;;;;46.60;15.60;;;;;;;2.68;100.00;100724.40;105542;1262;74105;-75
2022/12/09 05:06:28;;;;;;;47.80;16.20;;;;;;;2.59;100.00;100712.70;105447;1266;61118;-74
2022/12/09 05:08:57;;;;;;;38.90;15.50;;;;;;;2.58;100.00;100715.83;105480;1264;59078;-73
2022/12/09 05:11:27;;;;;;;39.60;14.30;;;;;;;2.52;100.00;100715.88;105504;1274;73460;-70
2022/12/09 05:13:57;;;;;;;49.50;17.10;;;;;;;2.52;100.00;100723.82;105543;1260;72442;-71
2022/12/09 05:16:26;;;;;;;47.60;18.30;;;;;;;2.48;100.00;100732.04;105595;1266;59332;-74
2022/12/09 05:18:58;;;;;;;52.10;17.60;;;;;;;2.43;100.00;100732.40;105582;1266;62509;-73
2022/12/09 05:21:27;;;;;;;47.50;16.40;;;;;;;2.50;100.00;100723.21;105560;1263;61237;-72
2022/12/09 05:23:57;;;;;;;49.80;17.60;;;;;;;2.45;100.00;100717.02;105589;1266;60714;-73
2022/12/09 05:26:26;;;;;;;53.10;18.00;;;;;;;2.47;100.00;100715.38;105537;1267;63373;-73
2022/12/09 05:28:55;;;;;;;51.40;18.50;;;;;;;2.53;100.00;100714.98;105614;1270;61008;-74
2022/12/09 05:31:24;;;;;;;49.40;18.20;;;;;;;2.54;100.00;100714.27;105562;1263;59473;-75
2022/12/09 05:33:53;;;;;;;52.00;19.90;;;;;;;2.56;100.00;100713.51;105509;1275;63136;-74
2022/12/09 05:36:26;;;;;;;55.70;21.30;;;;;;;2.57;100.00;100725.51;105460;1270;61995;-75
2022/12/09 05:38:55;;;;;;;56.60;18.60;;;;;;;2.62;100.00;100728.70;105568;1274;57547;-75
2022/12/09 05:41:24;;;;;;;47.50;19.90;;;;;;;2.67;100.00;100723.37;105599;1260;74531;-75
2022/12/09 05:43:53;;;;;;;50.90;20.40;;;;;;;2.72;100.00;100717.16;105594;1262;62585;-73
2022/12/09 05:46:22;;;;;;;47.60;16.10;;;;;;;2.70;100.00;100718.27;105329;1275;59185;-74
2022/12/09 05:48:51;;;;;;;45.60;17.40;;;;;;;2.65;100.00;100718.80;105584;1260;64642;-73
2022/12/09 05:51:25;;;;;;;66.60;25.50;;;;;;;2.61;100.00;100720.02;105455;1260;61045;-72
2022/12/09 05:53:56;;;;;;;63.60;24.10;;;;;;;2.57;100.00;100726.36;105490;1270;58964;-74
2022/12/09 05:56:26;;;;;;;63.90;24.20;;;;;;;2.52;100.00;100729.12;105422;1267;62898;-73
2022/12/09 05:58:55;;;;;;;37.20;16.00;;;;;;;2.50;100.00;100726.81;105568;1260;72113;-74
2022/12/09 06:01:26;;;;;;;57.40;21.80;;;;;;;2.44;100.00;100723.91;105430;1266;61294;-76
2022/12/09 06:03:55;;;;;;;47.70;18.50;;;;;;;2.36;100.00;100725.77;105439;1266;62714;-74
2022/12/09 06:06:26;;;;;;;42.90;16.60;;;;;;;2.36;100.00;100724.92;105656;1266;60040;-75
2022/12/09 06:09:01;;;;;;;37.30;13.20;;;;;;;2.35;100.00;100729.59;105510;1265;59085;-75
2022/12/09 06:11:31;;;;;;;52.60;21.10;;;;;;;2.31;100.00;100732.85;105599;1266;62062;-74
2022/12/09 06:14:00;;;;;;;53.10;17.90;;;;;;;2.27;100.00;100724.08;105479;1260;72070;-76
2022/12/09 06:16:29;;;;;;;54.70;20.40;;;;;;;2.30;100.00;100727.04;105427;1269;59622;-74
2022/12/09 06:18:58;;;;;;;48.30;18.00;;;;;;;2.33;100.00;100732.77;105311;1275;73145;-74
2022/12/09 06:21:28;;;;;;;45.90;16.60;;;;;;;2.37;100.00;100733.32;105426;1265;62030;-73
2022/12/09 06:23:57;;;;;;;46.40;18.60;;;;;;;2.34;100.00;100742.52;105312;1266;59205;-73
2022/12/09 06:26:29;;;;;;;49.50;18.90;;;;;;;2.37;100.00;100746.02;105418;1265;62095;-75
2022/12/09 06:28:58;;;;;;;49.30;18.70;;;;;;;2.32;100.00;100744.98;105380;1270;72775;-73
2022/12/09 06:31:28;;;;;;;45.10;16.40;;;;;;;2.46;100.00;100738.31;105549;1260;70941;-73
2022/12/09 06:33:57;;;;;;;53.30;18.50;;;;;;;2.51;100.00;100740.00;105588;1269;74068;-74
2022/12/09 06:36:29;;;;;;;45.60;17.40;;;;;;;2.53;100.00;100747.15;105530;1260;61757;-74
2022/12/09 06:39:01;;;;;;;43.60;15.80;;;;;;;2.56;100.00;100755.11;105518;1266;61625;-75
2022/12/09 06:41:41;;;;;;;39.50;15.10;;;;;;;2.55;100.00;100759.97;105623;1263;62756;-74
2022/12/09 06:44:12;;;;;;;48.60;18.90;;;;;;;2.56;100.00;100760.26;105628;1255;71105;-73
2022/12/09 06:46:49;;;;;;;49.30;17.90;;;;;;;2.55;100.00;100764.60;105628;1268;69815;-73
2022/12/09 06:49:18;;;;;;;53.70;21.80;;;;;;;2.57;100.00;100762.80;105686;1263;73625;-73
2022/12/09 06:51:48;;;;;;;51.40;20.00;;;;;;;2.59;100.00;100758.92;105537;1267;59091;-75
2022/12/09 06:54:17;;;;;;;57.20;21.30;;;;;;;2.63;100.00;100760.33;105549;1274;57525;-73
2022/12/09 06:56:47;;;;;;;45.10;18.50;;;;;;;2.70;100.00;100762.46;105615;1266;73002;-74
2022/12/09 06:59:17;;;;;;;52.40;19.10;;;;;;;2.81;100.00;100757.07;105662;1266;61303;-74
2022/12/09 07:01:46;;;;;;;55.90;20.70;;;;;;;2.83;100.00;100752.48;105600;1274;59115;-74
2022/12/09 07:04:15;;;;;;;50.90;21.40;;;;;;;2.92;100.00;100758.00;105624;1271;63049;-74
2022/12/09 07:06:46;;;;;;;57.30;22.10;;;;;;;2.94;100.00;100763.06;105615;1263;61193;-75
2022/12/09 07:09:19;;;;;;;55.60;21.00;;;;;;;2.91;100.00;100767.50;105604;1267;59126;-75
2022/12/09 07:11:48;;;;;;;;;;;;;;;2.96;100.00;100764.21;105692;1268;62903;-73
2022/12/09 07:14:18;;;;;;;49.10;19.90;;;;;;;3.06;100.00;100758.83;105892;1270;71613;-74
2022/12/09 07:16:47;;;;;;;50.90;19.60;;;;;;;3.09;100.00;100764.52;105858;1264;70854;-75
2022/12/09 07:19:20;;;;;;;51.20;19.70;;;;;;;3.22;100.00;100764.53;105764;1266;62796;-74
2022/12/09 07:21:50;;;;;;;47.70;19.90;;;;;;;3.29;100.00;100770.27;105652;1268;58901;-74
2022/12/09 07:24:20;;;;;;;36.50;14.90;;;;;;;3.42;100.00;100780.90;105752;1271;60330;-74
2022/12/09 07:26:49;;;;;;;47.60;19.00;;;;;;;3.47;100.00;100778.32;105681;1275;62036;-73
2022/12/09 07:29:18;;;;;;;47.80;21.10;;;;;;;3.44;100.00;100784.97;105632;1264;71516;-74
2022/12/09 07:31:48;;;;;;;41.10;16.70;;;;;;;3.40;100.00;100783.41;105744;1274;59101;-74
2022/12/09 07:34:18;;;;;;;46.90;18.10;;;;;;;3.44;100.00;100782.90;105591;1267;73063;-75
2022/12/09 07:36:46;;;;;;;48.00;21.20;;;;;;;3.35;100.00;100784.30;105708;1265;61481;-74
2022/12/09 07:39:17;;;;;;;53.80;20.10;;;;;;;3.31;100.00;100775.70;105646;1269;59025;-74
2022/12/09 07:41:55;;;;;;;40.80;17.10;;;;;;;3.41;100.00;100773.20;105734;1263;71766;-74
2022/12/09 07:44:28;;;;;;;50.90;20.80;;;;;;;3.50;100.00;100780.94;105735;1260;71854;-73
2022/12/09 07:46:57;;;;;;;47.90;19.90;;;;;;;3.53;100.00;100785.45;105725;1274;69909;-74
2022/12/09 07:49:26;;;;;;;46.30;19.50;;;;;;;3.56;100.00;100784.29;105669;1265;72810;-74
2022/12/09 07:51:55;;;;;;;44.00;19.00;;;;;;;3.56;100.00;100775.67;105697;1260;61718;-75
2022/12/09 07:54:24;;;;;;;39.90;16.80;;;;;;;3.61;100.00;100777.02;104387;1269;1674301;-74
2022/12/09 07:56:53;;;;;;;41.20;17.40;;;;;;;3.70;100.00;100770.24;107748;1260;72511;-75
2022/12/09 07:59:22;;;;;;;35.20;15.80;;;;;;;3.75;100.00;100766.26;107964;1270;72452;-76
2022/12/09 08:01:51;;;;;;;36.60;15.80;;;;;;;3.82;100.00;100768.02;107706;1260;60477;-74
2022/12/09 08:04:20;;;;;;;37.80;16.10;;;;;;;3.84;100.00;100774.64;107810;1259;63074;-75
2022/12/09 08:06:49;;;;;;;30.20;13.50;;;;;;;3.88;100.00;100782.38;107732;1270;57073;-75
2022/12/09 08:09:18;;;;;;;34.60;15.40;;;;;;;3.90;100.00;100783.34;107735;1256;57741;-75
2022/12/09 08:11:47;;;;;;;36.40;15.90;;;;;;;3.89;100.00;100784.27;107733;1267;62182;-74
2022/12/09 08:14:16;;;;;;;35.90;15.70;;;;;;;4.00;100.00;100786.35;107925;1260;71275;-75
2022/12/09 08:16:45;;;;;;;37.20;17.50;;;;;;;3.98;100.00;100776.77;107805;1269;59026;-76
2022/12/09 08:19:14;;;;;;;38.40;17.90;;;;;;;4.07;100.00;100772.27;107808;1263;62354;-74
2022/12/09 08:21:43;;;;;;;37.60;17.60;;;;;;;4.17;100.00;100763.87;107837;1260;57063;-76
2022/12/09 08:24:18;;;;;;;39.90;18.50;;;;;;;4.30;100.00;100760.74;107767;1270;61112;-74
2022/12/09 08:26:49;;;;;;;38.70;18.90;;;;;;;4.57;100.00;100764.30;107806;1262;73830;-74
2022/12/09 08:29:19;;;;;;;38.80;17.90;;;;;;;4.76;100.00;100752.70;107947;1260;71558;-75
2022/12/09 08:31:48;;;;;;;39.70;18.70;;;;;;;4.96;100.00;100744.31;107843;1269;59358;-75
2022/12/09 08:34:17;;;;;;;38.00;18.50;;;;;;;5.09;100.00;100738.67;107856;1260;62390;-75
2022/12/09 08:36:47;;;;;;;38.50;18.90;;;;;;;5.31;100.00;100730.51;107623;1262;57078;-75
2022/12/09 08:39:16;;;;;;;38.60;19.50;;;;;;;5.48;100.00;100726.89;107844;1263;57500;-75
2022/12/09 08:41:45;;;;;;;37.30;18.50;;;;;;;5.53;100.00;100724.39;107813;1270;62106;-76
2022/12/09 08:44:19;;;;;;;34.70;18.00;;;;;;;5.59;100.00;100723.59;107876;1264;60722;-75
2022/12/09 08:46:50;;;;;;;37.60;17.80;;;;;;;5.54;100.00;100727.60;107718;1270;59159;-78
2022/12/09 08:49:21;;;;;;;38.70;18.90;;;;;;;5.50;100.00;100724.56;107780;1270;62361;-75
2022/12/09 08:51:52;;;;;;;33.70;18.20;;;;;;;5.68;100.00;100723.11;107788;1264;62033;-75
2022/12/09 08:54:21;;;;;;;34.90;18.30;;;;;;;5.79;100.00;100723.20;107799;1264;61663;-76
2022/12/09 08:56:53;;;;;;;37.80;18.30;;;;;;;5.92;99.90;100721.00;107663;1265;73400;-76
2022/12/09 08:59:23;;;;;;;33.10;16.20;;;;;;;6.00;98.87;100718.34;107955;1261;61698;-76
2022/12/09 09:01:52;;;;;;;33.50;18.10;;;;;;;6.04;98.18;100709.87;107921;1260;71151;-74
2022/12/09 09:04:22;;;;;;;33.80;18.10;;;;;;;6.15;98.62;100707.35;107802;1263;74453;-75
2022/12/09 09:06:52;;;;;;;41.30;26.30;;;;;;;6.21;98.29;100705.98;107701;1267;57622;-75
2022/12/09 09:09:22;;;;;;;49.40;30.30;;;;;;;6.37;98.68;100714.08;107593;1261;60335;-75
2022/12/09 09:11:51;;;;;;;49.30;33.10;;;;;;;6.23;97.65;100711.21;107653;1270;74275;-75
2022/12/09 09:14:20;;;;;;;39.10;25.30;;;;;;;6.35;98.10;100702.42;107827;1261;72279;-75
2022/12/09 09:16:49;;;;;;;44.60;25.60;;;;;;;6.50;98.16;100705.94;107777;1264;59829;-74
2022/12/09 09:19:24;;;;;;;140.30;32.10;;;;;;;6.58;99.19;100702.91;107781;1263;63194;-75
2022/12/09 09:21:54;;;;;;;37.70;19.70;;;;;;;6.70;98.40;100690.96;107744;1263;61318;-74
2022/12/09 09:24:24;;;;;;;32.70;19.00;;;;;;;6.82;97.72;100690.46;107524;1269;57119;-74
2022/12/09 09:26:55;;;;;;;47.90;19.30;;;;;;;6.89;96.88;100696.83;107579;1258;73487;-75
2022/12/09 09:29:24;;;;;;;80.80;23.80;;;;;;;6.88;97.19;100697.40;107752;1261;72665;-75
2022/12/09 09:31:53;;;;;;;45.30;19.80;;;;;;;6.97;98.00;100695.19;107658;1261;71022;-74
2022/12/09 09:34:25;;;;;;;42.20;19.10;;;;;;;7.06;96.59;100695.36;107615;1259;63211;-75
2022/12/09 09:36:55;;;;;;;51.20;19.70;;;;;;;7.13;96.66;100698.02;107641;1265;61014;-74
2022/12/09 09:39:25;;;;;;;34.50;17.60;;;;;;;7.16;95.43;100694.70;107615;1270;60936;-76
2022/12/09 09:41:57;;;;;;;34.80;18.70;;;;;;;7.26;94.86;100694.00;107642;1260;73883;-74
2022/12/09 09:44:45;;;;;;;29.40;17.20;;;;;;;7.17;94.57;100683.41;107753;1264;71110;-75
2022/12/09 09:47:21;;;;;;;30.10;17.40;;;;;;;7.33;94.45;100689.92;107577;1261;69544;-75
2022/12/09 09:50:03;;;;;;;28.60;15.70;;;;;;;7.46;94.51;100682.73;107442;1264;74109;-75
2022/12/09 09:52:39;;;;;;;25.80;14.00;;;;;;;7.56;93.92;100680.23;107554;1260;62761;-75
2022/12/09 09:55:22;;;;;;;23.80;13.40;;;;;;;7.51;91.76;100680.20;107457;1263;61314;-75
2022/12/09 09:58:11;;;;;;;19.80;12.20;;;;;;;7.63;90.84;100680.72;107537;1260;73122;-75
2022/12/09 10:00:56;;;;;;;19.10;11.60;;;;;;;7.71;90.72;100679.14;107727;1261;60902;-75
2022/12/09 10:03:45;;;;;;;28.40;12.60;;;;;;;7.80;90.39;100678.63;107671;1260;70397;-75
2022/12/09 10:06:23;;;;;;;18.60;12.10;;;;;;;7.83;89.92;100679.47;107546;1270;72952;-75
2022/12/09 10:09:23;;;;;;;19.90;11.50;;;;;;;7.89;89.11;100677.36;107681;1263;57563;-75
2022/12/09 10:12:17;;;;;;;19.80;12.10;;;;;;;7.94;88.35;100673.04;107617;1264;57696;-75
2022/12/09 10:15:03;;;;;;;18.50;11.00;;;;;;;8.15;88.10;100673.00;107698;1265;72061;-75
2022/12/09 10:17:51;;;;;;;17.60;11.50;;;;;;;8.21;87.51;100675.92;107684;1255;71201;-74
2022/12/09 10:20:27;;;;;;;20.60;11.30;;;;;;;8.38;87.66;100672.44;107673;1263;70259;-75
2022/12/09 10:23:05;;;;;;;18.40;10.40;;;;;;;8.48;85.67;100663.99;107581;1265;73991;-75
2022/12/09 10:25:42;;;;;;;16.20;10.70;;;;;;;8.81;86.87;100658.55;107681;1265;61435;-75
2022/12/09 10:28:26;;;;;;;22.40;11.60;;;;;;;9.07;84.24;100661.66;107587;1263;61592;-75
2022/12/09 10:30:55;;;;;;;26.30;12.20;;;;;;;9.17;81.33;100654.58;107786;1263;72800;-75
2022/12/09 10:33:37;;;;;;;28.90;13.20;;;;;;;9.28;81.58;100651.20;107790;1257;72576;-76
2022/12/09 10:36:24;;;;;;;16.80;11.00;;;;;;;9.37;80.40;100645.92;107619;1270;59743;-75
2022/12/09 10:39:04;;;;;;;22.00;10.40;;;;;;;9.56;78.82;100647.57;107635;1258;64992;-77
2022/12/09 10:44:32;;;;;;;21.80;10.80;;;;;;;9.60;77.23;100647.44;107655;1267;60386;-75
2022/12/09 10:47:28;;;;;;;26.70;10.70;;;;;;;9.32;78.58;100642.05;107586;1262;72614;-75
2022/12/09 10:49:58;;;;;;;28.50;11.30;;;;;;;9.33;78.75;100635.42;107761;1258;61100;-76
2022/12/09 10:52:38;;;;;;;30.40;12.20;;;;;;;9.48;77.82;100634.05;107594;1266;69765;-75
2022/12/09 10:55:24;;;;;;;15.40;10.20;;;;;;;9.54;77.21;100627.37;107710;1258;73534;-80
2022/12/09 10:58:25;;;;;;;14.70;10.30;;;;;;;9.92;77.34;100630.91;107614;1267;61351;-78
2022/12/09 11:01:01;;;;;;;20.90;11.60;;;;;;;10.30;74.76;100632.43;107686;1266;61842;-75
2022/12/09 11:03:37;;;;;;;20.90;11.80;;;;;;;10.49;74.02;100633.98;107679;1260;63542;-75
2022/12/09 11:06:36;;;;;;;18.00;10.20;;;;;;;10.40;74.59;100633.98;107841;1260;71519;-75
2022/12/09 11:09:05;;;;;;;16.10;10.10;;;;;;;10.81;73.90;100624.66;107676;1266;59262;-74
2022/12/09 11:11:48;;;;;;;15.50;10.30;;;;;;;10.84;71.79;100624.09;107665;1270;73883;-75
2022/12/09 11:14:26;;;;;;;21.20;11.30;;;;;;;11.03;71.51;100621.96;107601;1266;61483;-75
2022/12/09 11:17:09;;;;;;;40.20;13.10;;;;;;;10.86;70.51;100616.98;107716;1265;57651;-77
2022/12/09 11:19:40;;;;;;;20.90;10.90;;;;;;;11.04;70.72;100617.15;107574;1260;62991;-76
2022/12/09 11:22:38;;;;;;;22.00;10.20;;;;;;;11.03;70.11;100615.87;107796;1262;71397;-76
2022/12/09 11:25:11;;;;;;;26.80;9.50;;;;;;;11.10;68.97;100612.54;107715;1260;59851;-78
2022/12/09 11:27:57;;;;;;;24.00;12.10;;;;;;;11.07;69.48;100609.10;107696;1260;63344;-79
2022/12/09 11:30:51;;;;;;;18.30;10.40;;;;;;;11.34;69.54;100611.60;107657;1270;57402;-77
2022/12/09 11:33:51;;;;;;;24.30;12.00;;;;;;;11.76;69.01;100613.58;107585;1266;57162;-75
2022/12/09 11:36:30;;;;;;;21.00;10.40;;;;;;;12.12;68.50;100610.87;107603;1267;64552;-75